Terminal Aerodrome Forecast
Issued by NWS

Home | Current Version | Previous Version | Text Only | Print | Product List | Glossary On
Versions: 1 2 3 4 5 6 7 8 9 10 11 12
225
FTUS44 KSJT 241724
TAFBBD
TAF
KBBD 241724Z 2418/2518 22011G16KT P6SM SKC
     FM242300 21008KT P6SM SKC
     FM251200 27003KT P6SM SKC
     FM251700 01011G16KT P6SM SKC
      AMD NOT SKED=

USA.gov is the U.S. government's official web portal to all federal, state and local government web resources and services.